createdAt,value
2022-10-26T00:00:28.805Z,16.88
2022-10-26T00:01:31.594Z,16.98
2022-10-26T00:02:34.150Z,18.17
2022-10-26T00:03:37.764Z,18.35
2022-10-26T00:04:40.207Z,18.00
2022-10-26T00:05:42.475Z,18.80
2022-10-26T00:06:44.704Z,18.20
2022-10-26T00:07:46.916Z,20.10
2022-10-26T00:08:49.810Z,19.30
2022-10-26T00:09:51.998Z,20.42
2022-10-26T00:10:58.094Z,19.60
2022-10-26T00:12:00.551Z,19.17
2022-10-26T00:13:03.667Z,19.90
2022-10-26T00:14:06.012Z,21.00
2022-10-26T00:15:09.159Z,19.70
2022-10-26T00:16:24.326Z,20.52
2022-10-26T00:17:26.529Z,21.27
2022-10-26T00:18:28.814Z,21.13
2022-10-26T00:19:34.280Z,19.90
2022-10-26T00:20:37.639Z,19.33
2022-10-26T00:21:39.826Z,20.98
2022-10-26T00:22:42.094Z,21.75
2022-10-26T00:23:44.328Z,22.17
2022-10-26T00:24:46.570Z,21.48
2022-10-26T00:25:56.054Z,21.27
2022-10-26T00:26:58.614Z,21.23
2022-10-26T00:28:00.958Z,18.08
2022-10-26T00:29:03.358Z,19.17
2022-10-26T00:30:06.444Z,19.08
2022-10-26T00:31:13.971Z,19.58
2022-10-26T00:32:16.210Z,18.52
2022-10-26T00:33:18.636Z,19.35
2022-10-26T00:34:21.010Z,18.52
2022-10-26T00:35:41.149Z,20.30
2022-10-26T00:36:45.674Z,18.75
2022-10-26T00:37:48.304Z,19.50
2022-10-26T00:38:52.786Z,19.80
2022-10-26T00:39:55.441Z,19.20
2022-10-26T00:42:05.086Z,19.15
2022-10-26T00:43:16.636Z,18.25
2022-10-26T00:44:49.575Z,16.77
2022-10-26T00:45:55.691Z,17.92
2022-10-26T00:46:58.825Z,20.55
2022-10-26T00:48:07.905Z,19.80
2022-10-26T00:50:35.383Z,18.10
2022-10-26T00:51:42.907Z,17.65
2022-10-26T00:52:45.448Z,19.35
2022-10-26T00:53:48.257Z,18.05
2022-10-26T00:54:51.702Z,19.17
2022-10-26T00:55:55.050Z,19.30
2022-10-26T00:56:57.438Z,19.05
2022-10-26T00:58:02.098Z,19.80
2022-10-26T00:59:07.531Z,18.33
2022-10-26T01:00:11.166Z,18.75
2022-10-26T01:01:13.529Z,19.33
2022-10-26T01:02:15.907Z,20.23
2022-10-26T01:03:19.198Z,19.13
2022-10-26T01:04:21.947Z,18.90
2022-10-26T01:05:24.553Z,19.65
2022-10-26T01:06:30.341Z,19.65
2022-10-26T01:07:33.949Z,18.35
2022-10-26T01:08:36.261Z,17.15
2022-10-26T01:09:38.761Z,19.40
2022-10-26T01:10:42.467Z,17.88
2022-10-26T01:11:44.831Z,18.67
2022-10-26T01:12:47.494Z,20.13
2022-10-26T01:13:52.715Z,17.77
2022-10-26T01:14:55.297Z,19.65
2022-10-26T01:16:13.054Z,19.88
2022-10-26T01:17:37.375Z,19.00
2022-10-26T01:19:02.313Z,17.75
2022-10-26T01:20:28.960Z,17.90
2022-10-26T01:22:00.407Z,18.05
2022-10-26T01:23:33.999Z,19.48
2022-10-26T01:24:47.057Z,19.63
2022-10-26T01:26:30.239Z,20.58
2022-10-26T01:27:36.068Z,18.17
2022-10-26T01:29:12.162Z,20.45
2022-10-26T01:30:43.636Z,20.17
2022-10-26T01:32:11.933Z,19.42
2022-10-26T01:33:33.760Z,18.25
2022-10-26T01:35:13.503Z,18.27
2022-10-26T01:36:29.022Z,17.17
2022-10-26T01:37:37.729Z,17.80
2022-10-26T01:38:43.190Z,18.10
2022-10-26T01:39:50.918Z,19.90
2022-10-26T01:41:05.426Z,17.33
2022-10-26T01:42:09.444Z,20.05
2022-10-26T01:43:14.313Z,19.83
2022-10-26T01:44:44.061Z,20.83
2022-10-26T01:45:48.629Z,21.45
2022-10-26T01:46:54.681Z,25.88
2022-10-26T01:47:59.600Z,25.67
2022-10-26T01:49:08.186Z,27.67
2022-10-26T01:50:12.222Z,28.45
2022-10-26T01:51:15.460Z,22.95
2022-10-26T01:52:21.404Z,27.58
2022-10-26T01:53:26.798Z,27.95
2022-10-26T01:54:29.481Z,25.55
2022-10-26T01:55:48.574Z,26.30
2022-10-26T01:56:59.455Z,26.58
2022-10-26T01:58:18.255Z,24.55
2022-10-26T01:59:49.785Z,24.60
2022-10-26T02:01:19.609Z,23.48
2022-10-26T02:02:49.652Z,23.48
2022-10-26T02:04:07.719Z,24.23
2022-10-26T02:05:32.576Z,22.13
2022-10-26T02:06:56.116Z,22.05
2022-10-26T02:08:13.007Z,20.70
2022-10-26T02:09:35.940Z,20.17
2022-10-26T02:12:03.096Z,19.77
2022-10-26T02:13:33.918Z,21.15
2022-10-26T02:14:48.719Z,19.13
2022-10-26T02:15:58.127Z,17.42
2022-10-26T02:17:12.108Z,19.13
2022-10-26T02:18:29.325Z,18.95
2022-10-26T02:19:40.482Z,18.77
2022-10-26T02:20:49.388Z,17.92
2022-10-26T02:21:56.849Z,20.38
2022-10-26T02:23:03.961Z,18.48
2022-10-26T02:24:10.695Z,20.17
2022-10-26T02:25:20.744Z,19.48
2022-10-26T02:26:28.050Z,20.15
2022-10-26T02:27:34.797Z,21.17
2022-10-26T02:28:40.228Z,21.15
2022-10-26T02:29:44.235Z,25.38
2022-10-26T02:30:50.031Z,22.85
2022-10-26T02:31:53.767Z,25.08
2022-10-26T02:32:57.819Z,22.52
2022-10-26T02:34:05.872Z,21.55
2022-10-26T02:35:08.752Z,19.63
2022-10-26T02:36:16.944Z,19.90
2022-10-26T02:37:21.905Z,19.83
2022-10-26T02:38:25.705Z,18.30
2022-10-26T02:39:32.716Z,18.80
2022-10-26T02:40:36.243Z,18.55
2022-10-26T02:41:40.824Z,19.65
2022-10-26T02:42:46.156Z,18.67
2022-10-26T02:43:53.848Z,18.17
2022-10-26T02:45:00.484Z,20.17
2022-10-26T02:46:10.766Z,17.77
2022-10-26T02:47:13.628Z,18.50
2022-10-26T02:48:16.500Z,19.50
2022-10-26T02:49:20.319Z,18.15
2022-10-26T02:50:27.824Z,19.75
2022-10-26T02:51:42.912Z,18.17
2022-10-26T02:53:17.394Z,18.35
2022-10-26T02:54:29.810Z,18.65
2022-10-26T02:55:44.475Z,18.75
2022-10-26T02:57:00.221Z,17.60
2022-10-26T02:58:06.723Z,17.42
2022-10-26T02:59:11.932Z,18.83
2022-10-26T03:00:17.025Z,19.20
2022-10-26T03:01:19.490Z,19.27
2022-10-26T03:02:23.035Z,17.40
2022-10-26T03:03:25.471Z,16.50
2022-10-26T03:04:30.309Z,18.60
2022-10-26T03:05:33.375Z,16.23
2022-10-26T03:06:36.083Z,18.42
2022-10-26T03:07:38.335Z,16.92
2022-10-26T03:08:40.499Z,18.48
2022-10-26T03:09:42.853Z,17.92
2022-10-26T03:10:46.283Z,21.95
2022-10-26T03:11:48.543Z,21.88
2022-10-26T03:12:51.443Z,21.73
2022-10-26T03:13:54.305Z,25.10
2022-10-26T03:14:56.661Z,25.08
2022-10-26T03:15:58.953Z,23.13
2022-10-26T03:17:01.244Z,22.75
2022-10-26T03:18:04.673Z,22.10
2022-10-26T03:19:06.915Z,19.95
2022-10-26T03:20:09.859Z,17.70
2022-10-26T03:21:12.001Z,18.50
2022-10-26T03:22:14.118Z,17.05
2022-10-26T03:23:16.309Z,17.77
2022-10-26T03:24:18.899Z,18.75
2022-10-26T03:25:21.105Z,18.63
2022-10-26T03:26:23.308Z,17.80
2022-10-26T03:27:27.127Z,15.70
2022-10-26T03:28:29.548Z,15.70
2022-10-26T03:29:32.150Z,17.05
2022-10-26T03:30:34.707Z,15.20
2022-10-26T03:31:36.948Z,16.08
2022-10-26T03:32:39.228Z,16.60
2022-10-26T03:33:41.501Z,17.13
2022-10-26T03:34:43.905Z,17.70
2022-10-26T03:35:46.138Z,17.52
2022-10-26T03:36:49.122Z,16.58
2022-10-26T03:37:51.865Z,17.27
2022-10-26T03:38:54.537Z,15.75
2022-10-26T03:39:57.116Z,16.17
2022-10-26T03:41:00.155Z,16.13
2022-10-26T03:42:02.362Z,16.77
2022-10-26T03:43:04.571Z,16.50
2022-10-26T03:44:07.320Z,16.73
2022-10-26T03:45:10.367Z,16.92
2022-10-26T03:46:12.861Z,16.50
2022-10-26T03:47:15.111Z,16.77
2022-10-26T03:48:17.447Z,15.73
2022-10-26T03:49:19.741Z,15.43
2022-10-26T03:50:22.771Z,17.73
2022-10-26T03:51:25.063Z,16.27
2022-10-26T03:52:27.263Z,15.35
2022-10-26T03:53:29.586Z,16.00
2022-10-26T03:54:31.845Z,17.65
2022-10-26T03:55:34.172Z,17.55
2022-10-26T03:56:36.494Z,17.77
2022-10-26T03:57:45.603Z,17.65
2022-10-26T03:58:48.511Z,17.33
2022-10-26T03:59:51.521Z,16.52
2022-10-26T04:00:53.785Z,19.15
2022-10-26T04:01:57.896Z,16.55
2022-10-26T04:03:00.669Z,17.83
2022-10-26T04:04:03.132Z,16.13
2022-10-26T04:05:05.855Z,16.20
2022-10-26T04:06:08.361Z,15.93
2022-10-26T04:07:11.293Z,16.35
2022-10-26T04:08:13.615Z,23.30
2022-10-26T04:09:15.900Z,21.98
2022-10-26T04:10:18.185Z,21.10
2022-10-26T04:11:20.409Z,20.80
2022-10-26T04:12:25.741Z,20.92
2022-10-26T04:13:28.169Z,20.25
2022-10-26T04:14:30.470Z,19.35
2022-10-26T04:15:33.049Z,20.95
2022-10-26T04:16:35.613Z,18.23
2022-10-26T04:17:37.936Z,17.88
2022-10-26T04:18:40.200Z,18.95
2022-10-26T04:19:42.643Z,18.83
2022-10-26T04:20:44.984Z,16.35
2022-10-26T04:21:47.188Z,17.33
2022-10-26T04:22:57.395Z,17.25
2022-10-26T04:23:59.559Z,16.10
2022-10-26T04:25:01.755Z,16.73
2022-10-26T04:26:06.833Z,17.02
2022-10-26T04:27:09.326Z,18.00
2022-10-26T04:28:13.541Z,17.10
2022-10-26T04:29:15.780Z,14.90
2022-10-26T04:30:18.084Z,15.32
2022-10-26T04:31:20.480Z,16.25
2022-10-26T04:32:22.790Z,16.08
2022-10-26T04:33:25.077Z,16.83
2022-10-26T04:34:27.286Z,17.35
2022-10-26T04:35:29.716Z,16.65
2022-10-26T04:36:32.072Z,16.40
2022-10-26T04:37:34.445Z,16.85
2022-10-26T04:38:37.048Z,16.52
2022-10-26T04:39:39.353Z,19.15
2022-10-26T04:40:41.580Z,16.83
2022-10-26T04:41:43.821Z,16.42
2022-10-26T04:42:47.926Z,14.27
2022-10-26T04:43:50.848Z,15.27
2022-10-26T04:44:53.028Z,15.98
2022-10-26T04:45:56.682Z,15.60
2022-10-26T04:48:06.818Z,15.70
2022-10-26T04:49:09.115Z,15.80
2022-10-26T04:50:12.869Z,14.15
2022-10-26T04:51:15.443Z,16.73
2022-10-26T04:52:17.776Z,14.35
2022-10-26T04:53:20.150Z,14.82
2022-10-26T04:54:22.526Z,18.80
2022-10-26T04:55:25.089Z,18.20
2022-10-26T04:56:27.765Z,16.15
2022-10-26T04:57:29.934Z,13.90
2022-10-26T04:58:32.241Z,16.70
2022-10-26T04:59:34.528Z,20.00
2022-10-26T05:00:36.779Z,13.52
2022-10-26T05:01:39.114Z,12.93
2022-10-26T05:02:41.429Z,18.30
2022-10-26T05:03:43.611Z,19.65
2022-10-26T05:04:45.875Z,19.23
2022-10-26T05:05:51.372Z,21.15
2022-10-26T05:06:54.539Z,18.38
2022-10-26T05:07:57.384Z,14.85
2022-10-26T05:08:59.784Z,14.45
2022-10-26T05:10:01.966Z,17.60
2022-10-26T05:11:04.323Z,21.35
2022-10-26T05:12:06.545Z,14.40
2022-10-26T05:13:09.722Z,16.55
2022-10-26T05:14:13.333Z,17.13
2022-10-26T05:15:15.833Z,17.58
2022-10-26T05:16:18.038Z,18.13
2022-10-26T05:17:20.429Z,17.02
2022-10-26T05:18:22.724Z,14.77
2022-10-26T05:19:25.233Z,20.10
2022-10-26T05:20:30.954Z,13.82
2022-10-26T05:21:33.208Z,17.52
2022-10-26T05:22:35.489Z,16.23
2022-10-26T05:23:37.599Z,14.93
2022-10-26T05:24:39.862Z,19.90
2022-10-26T05:25:41.980Z,15.70
2022-10-26T05:26:44.629Z,17.08
2022-10-26T05:27:46.790Z,14.43
2022-10-26T05:28:49.172Z,14.65
2022-10-26T05:29:51.404Z,12.65
2022-10-26T05:30:53.702Z,15.32
2022-10-26T05:31:56.178Z,12.90
2022-10-26T05:33:00.636Z,15.27
2022-10-26T05:34:03.207Z,11.77
2022-10-26T05:35:06.020Z,17.95
2022-10-26T05:36:08.615Z,15.32
2022-10-26T05:37:11.153Z,14.00
2022-10-26T05:38:15.617Z,14.57
2022-10-26T05:39:18.351Z,19.90
2022-10-26T05:40:20.954Z,13.18
2022-10-26T05:41:23.283Z,13.63
2022-10-26T05:42:25.675Z,16.02
2022-10-26T05:43:28.329Z,14.48
2022-10-26T05:44:34.417Z,20.58
2022-10-26T05:45:36.614Z,17.10
2022-10-26T05:46:38.980Z,15.05
2022-10-26T05:47:42.762Z,13.90
2022-10-26T05:48:44.995Z,14.35
2022-10-26T05:49:48.161Z,12.80
2022-10-26T05:50:50.613Z,16.42
2022-10-26T05:51:53.015Z,21.30
2022-10-26T05:52:56.034Z,16.00
2022-10-26T05:53:58.379Z,16.40
2022-10-26T05:55:01.042Z,16.23
2022-10-26T05:56:06.040Z,20.73
2022-10-26T05:57:12.815Z,17.77
2022-10-26T05:58:16.019Z,14.77
2022-10-26T05:59:18.590Z,16.05
2022-10-26T06:00:26.223Z,15.75
2022-10-26T06:01:49.758Z,13.90
2022-10-26T06:03:03.835Z,17.60
2022-10-26T06:04:29.867Z,17.95
2022-10-26T06:05:55.895Z,12.70
2022-10-26T06:06:59.918Z,13.02
2022-10-26T06:08:02.538Z,18.92
2022-10-26T06:09:05.356Z,20.00
2022-10-26T06:10:10.618Z,18.90
2022-10-26T06:11:13.301Z,18.02
2022-10-26T06:12:19.255Z,19.63
2022-10-26T06:13:23.237Z,15.18
2022-10-26T06:14:25.711Z,14.15
2022-10-26T06:15:30.813Z,15.48
2022-10-26T06:17:07.245Z,13.30
2022-10-26T06:18:25.413Z,13.48
2022-10-26T06:19:33.650Z,14.43
2022-10-26T06:20:36.042Z,13.18
2022-10-26T06:21:59.668Z,15.80
2022-10-26T06:23:14.233Z,15.20
2022-10-26T06:24:21.966Z,15.07
2022-10-26T06:25:27.269Z,13.85
2022-10-26T06:26:59.445Z,14.05
2022-10-26T06:28:40.709Z,13.57
2022-10-26T06:30:07.353Z,10.98
2022-10-26T06:31:09.778Z,16.67
2022-10-26T06:32:12.703Z,13.85
2022-10-26T06:33:28.906Z,15.63
2022-10-26T06:34:38.670Z,13.90
2022-10-26T06:35:41.097Z,15.68
2022-10-26T06:36:43.688Z,13.73
2022-10-26T06:37:46.995Z,13.57
2022-10-26T06:38:53.762Z,17.52
2022-10-26T06:39:57.554Z,17.33
2022-10-26T06:41:00.657Z,14.18
2022-10-26T06:42:03.355Z,17.23
2022-10-26T06:43:17.262Z,15.18
2022-10-26T06:44:24.164Z,14.57
2022-10-26T06:45:26.898Z,15.30
2022-10-26T06:47:13.657Z,13.68
2022-10-26T06:48:21.943Z,13.13
2022-10-26T06:49:35.306Z,14.77
2022-10-26T06:50:44.491Z,16.30
2022-10-26T06:52:28.329Z,14.68
2022-10-26T06:53:43.763Z,14.98
2022-10-26T06:54:54.815Z,16.90
2022-10-26T06:55:59.308Z,15.80
2022-10-26T06:57:02.151Z,17.95
2022-10-26T06:58:04.992Z,18.90
2022-10-26T06:59:15.437Z,17.45
2022-10-26T07:01:23.717Z,15.60
2022-10-26T07:02:26.480Z,16.85
2022-10-26T07:03:28.979Z,16.83
2022-10-26T07:04:31.311Z,15.48
2022-10-26T07:05:33.857Z,15.45
2022-10-26T07:06:39.276Z,14.48
2022-10-26T07:07:48.705Z,15.95
2022-10-26T07:08:51.406Z,15.63
2022-10-26T07:09:53.892Z,16.35
2022-10-26T07:10:56.436Z,15.60
2022-10-26T07:11:58.647Z,13.77
2022-10-26T07:13:01.836Z,14.35
2022-10-26T07:14:04.343Z,14.57
2022-10-26T07:16:15.990Z,14.18
2022-10-26T07:17:18.515Z,12.98
2022-10-26T07:18:20.789Z,14.07
2022-10-26T07:19:23.517Z,12.88
2022-10-26T07:20:26.286Z,11.68
2022-10-26T07:21:28.575Z,13.80
2022-10-26T07:22:31.903Z,12.05
2022-10-26T07:23:34.649Z,13.23
2022-10-26T07:24:37.012Z,12.32
2022-10-26T07:25:40.852Z,11.70
2022-10-26T07:27:45.708Z,12.50
2022-10-26T07:28:50.448Z,12.60
2022-10-26T07:29:52.747Z,11.18
2022-10-26T07:30:56.169Z,10.45
2022-10-26T07:31:58.705Z,11.07
2022-10-26T07:33:12.412Z,11.50
2022-10-26T07:34:14.693Z,10.10
2022-10-26T07:35:17.492Z,11.95
2022-10-26T07:36:19.820Z,12.88
2022-10-26T07:37:22.081Z,11.50
2022-10-26T07:38:24.587Z,11.52
2022-10-26T07:39:27.837Z,12.18
2022-10-26T07:40:30.738Z,10.68
2022-10-26T07:41:33.426Z,11.65
2022-10-26T07:42:37.560Z,10.60
2022-10-26T07:43:39.783Z,9.73
2022-10-26T07:44:42.312Z,10.98
2022-10-26T07:45:44.594Z,10.75
2022-10-26T07:46:47.088Z,11.50
2022-10-26T07:47:50.100Z,10.93
2022-10-26T07:48:52.635Z,12.63
2022-10-26T07:49:54.932Z,9.98
2022-10-26T07:50:57.291Z,11.93
2022-10-26T07:51:59.530Z,11.25
2022-10-26T07:53:02.066Z,10.85
2022-10-26T07:54:04.485Z,11.40
2022-10-26T07:55:07.522Z,11.00
2022-10-26T07:56:11.076Z,11.38
2022-10-26T07:57:13.486Z,10.70
2022-10-26T07:58:16.149Z,11.18
2022-10-26T07:59:18.575Z,12.43
2022-10-26T08:00:21.658Z,10.15
2022-10-26T08:01:24.485Z,11.10
2022-10-26T08:02:27.019Z,12.15
2022-10-26T08:03:29.187Z,11.13
2022-10-26T08:04:31.500Z,11.85
2022-10-26T08:05:33.848Z,12.02
2022-10-26T08:06:36.700Z,13.77
2022-10-26T08:07:44.609Z,13.48
2022-10-26T08:08:49.724Z,11.65
2022-10-26T08:09:52.544Z,12.68
2022-10-26T08:10:54.897Z,12.85
2022-10-26T08:11:57.186Z,11.45
2022-10-26T08:12:59.500Z,12.32
2022-10-26T08:14:01.764Z,12.70
2022-10-26T08:15:04.614Z,12.35
2022-10-26T08:16:07.157Z,14.63
2022-10-26T08:17:09.676Z,13.48
2022-10-26T08:18:12.120Z,12.05
2022-10-26T08:19:14.391Z,11.88
2022-10-26T08:20:16.844Z,12.23
2022-10-26T08:21:25.958Z,11.45
2022-10-26T08:22:37.934Z,10.95
2022-10-26T08:23:41.276Z,10.45
2022-10-26T08:24:46.865Z,10.27
2022-10-26T08:25:49.551Z,10.52
2022-10-26T08:26:51.906Z,10.68
2022-10-26T08:27:54.688Z,10.15
2022-10-26T08:28:57.095Z,10.75
2022-10-26T08:29:59.411Z,10.90
2022-10-26T08:31:01.836Z,10.90
2022-10-26T08:32:04.712Z,10.38
2022-10-26T08:33:10.461Z,10.35
2022-10-26T08:34:13.682Z,10.27
2022-10-26T08:35:16.170Z,9.32
2022-10-26T08:36:24.499Z,9.43
2022-10-26T08:37:27.586Z,9.18
2022-10-26T08:38:30.143Z,9.60
2022-10-26T08:39:32.796Z,9.80
2022-10-26T08:40:41.829Z,9.98
2022-10-26T08:41:52.888Z,9.05
2022-10-26T08:43:02.949Z,9.77
2022-10-26T08:44:26.179Z,10.85
2022-10-26T08:45:36.865Z,10.65
2022-10-26T08:46:45.828Z,11.18
2022-10-26T08:47:53.830Z,11.75
2022-10-26T08:49:01.714Z,11.50
2022-10-26T08:50:13.999Z,11.30
2022-10-26T08:51:30.771Z,10.57
2022-10-26T08:52:50.044Z,10.10
2022-10-26T08:54:23.146Z,9.30
2022-10-26T08:55:30.971Z,9.40
2022-10-26T08:56:40.583Z,10.35
2022-10-26T08:57:43.357Z,10.77
2022-10-26T08:58:54.713Z,10.43
2022-10-26T09:00:01.866Z,10.13
2022-10-26T09:01:05.579Z,10.48
2022-10-26T09:02:13.907Z,10.43
2022-10-26T09:03:18.145Z,10.88
2022-10-26T09:04:28.862Z,9.93
2022-10-26T09:05:44.948Z,10.73
2022-10-26T09:07:02.283Z,9.80
2022-10-26T09:08:04.682Z,10.25
2022-10-26T09:09:31.293Z,10.15
2022-10-26T09:10:33.492Z,8.57
2022-10-26T09:12:07.263Z,10.18
2022-10-26T09:13:32.959Z,9.90
2022-10-26T09:15:01.753Z,10.27
2022-10-26T09:16:16.362Z,11.07
2022-10-26T09:17:48.767Z,10.15
2022-10-26T09:19:11.206Z,11.57
2022-10-26T09:20:31.742Z,10.65
2022-10-26T09:21:57.401Z,10.40
2022-10-26T09:23:14.630Z,10.52
2022-10-26T09:24:25.923Z,10.95
2022-10-26T09:25:38.294Z,12.20
2022-10-26T09:26:40.843Z,12.32
2022-10-26T09:27:48.115Z,12.27
2022-10-26T09:28:50.651Z,11.55
2022-10-26T09:29:54.401Z,11.73
2022-10-26T09:30:59.416Z,11.13
2022-10-26T09:32:05.085Z,11.98
2022-10-26T09:33:21.744Z,10.98
2022-10-26T09:34:31.146Z,10.75
2022-10-26T09:35:55.756Z,11.23
2022-10-26T09:36:58.975Z,11.27
2022-10-26T09:38:13.977Z,11.80
2022-10-26T09:39:42.584Z,11.48
2022-10-26T09:41:19.517Z,10.65
2022-10-26T09:42:44.156Z,11.75
2022-10-26T09:44:04.632Z,10.88
2022-10-26T09:45:27.871Z,11.95
2022-10-26T09:46:57.038Z,11.13
2022-10-26T09:49:12.966Z,12.48
2022-10-26T09:50:34.077Z,12.60
2022-10-26T09:51:38.977Z,11.75
2022-10-26T09:52:41.614Z,11.35
2022-10-26T09:53:43.963Z,13.30
2022-10-26T09:54:46.228Z,11.80
2022-10-26T09:55:50.874Z,12.13
2022-10-26T09:56:59.670Z,13.02
2022-10-26T09:58:06.593Z,11.20
2022-10-26T09:59:11.428Z,12.82
2022-10-26T10:00:19.140Z,12.23
2022-10-26T10:01:38.301Z,12.48
2022-10-26T10:03:48.221Z,11.50
2022-10-26T10:04:50.455Z,11.27
2022-10-26T10:05:53.679Z,12.02
2022-10-26T10:07:01.810Z,12.02
2022-10-26T10:08:17.259Z,11.88
2022-10-26T10:09:22.417Z,11.73
2022-10-26T10:10:24.568Z,11.77
2022-10-26T10:11:44.768Z,11.80
2022-10-26T10:12:51.114Z,11.70
2022-10-26T10:13:53.481Z,10.77
2022-10-26T10:14:57.823Z,12.18
2022-10-26T10:16:05.930Z,12.20
2022-10-26T10:17:20.562Z,12.77
2022-10-26T10:18:24.189Z,12.30
2022-10-26T10:19:32.440Z,12.45
2022-10-26T10:20:34.788Z,13.50
2022-10-26T10:21:47.850Z,13.70
2022-10-26T10:22:58.770Z,13.02
2022-10-26T10:24:01.014Z,13.63
2022-10-26T10:25:05.069Z,13.32
2022-10-26T10:27:16.791Z,11.77
2022-10-26T10:28:24.877Z,13.27
2022-10-26T10:29:52.009Z,13.88
2022-10-26T10:30:59.698Z,13.27
2022-10-26T10:32:03.749Z,13.82
2022-10-26T10:33:10.801Z,14.95
2022-10-26T10:34:17.710Z,14.48
2022-10-26T10:35:24.675Z,13.85
2022-10-26T10:36:32.495Z,15.32
2022-10-26T10:37:41.755Z,13.35
2022-10-26T10:38:46.321Z,15.20
2022-10-26T10:39:49.243Z,14.60
2022-10-26T10:40:55.456Z,14.38
2022-10-26T10:41:57.812Z,14.70
2022-10-26T10:43:07.475Z,14.38
2022-10-26T10:44:29.991Z,16.05
2022-10-26T10:45:33.169Z,14.15
2022-10-26T10:46:35.825Z,14.15
2022-10-26T10:47:39.744Z,12.50
2022-10-26T10:48:55.235Z,13.68
2022-10-26T10:50:03.339Z,13.73
2022-10-26T10:51:12.680Z,14.02
2022-10-26T10:52:25.058Z,13.93
2022-10-26T10:53:31.692Z,13.25
2022-10-26T10:54:39.478Z,13.63
2022-10-26T10:56:57.964Z,14.77
2022-10-26T10:58:07.268Z,13.80
2022-10-26T10:59:21.653Z,14.75
2022-10-26T11:00:25.575Z,14.52
2022-10-26T11:01:48.993Z,13.40
2022-10-26T11:04:40.042Z,14.50
2022-10-26T11:05:51.305Z,14.38
2022-10-26T11:06:57.706Z,14.52
2022-10-26T11:08:12.338Z,14.10
2022-10-26T11:09:20.802Z,14.60
2022-10-26T11:10:28.008Z,14.13
2022-10-26T11:11:53.475Z,13.88
2022-10-26T11:13:00.335Z,15.73
2022-10-26T11:14:08.746Z,14.40
2022-10-26T11:15:18.444Z,15.20
2022-10-26T11:16:26.513Z,13.30
2022-10-26T11:17:43.617Z,13.50
2022-10-26T11:19:12.005Z,13.70
2022-10-26T11:20:21.195Z,13.55
2022-10-26T11:21:31.857Z,12.45
2022-10-26T11:22:39.938Z,13.77
2022-10-26T11:24:11.416Z,13.43
2022-10-26T11:25:24.537Z,12.55
2022-10-26T11:26:46.012Z,13.93
2022-10-26T11:28:15.090Z,14.68
2022-10-26T11:29:21.445Z,17.85
2022-10-26T11:30:27.818Z,17.33
2022-10-26T11:31:54.667Z,20.83
2022-10-26T11:33:03.515Z,16.95
2022-10-26T11:34:21.018Z,19.15
2022-10-26T11:35:26.955Z,17.30
2022-10-26T11:36:31.934Z,13.75
2022-10-26T11:37:46.699Z,14.07
2022-10-26T11:39:20.685Z,14.52
2022-10-26T11:40:39.028Z,13.20
2022-10-26T11:41:48.566Z,12.95
2022-10-26T11:43:02.153Z,12.23
2022-10-26T11:44:37.066Z,12.52
2022-10-26T11:45:47.193Z,13.48
2022-10-26T11:47:18.858Z,13.98
2022-10-26T11:48:51.008Z,13.43
2022-10-26T11:50:17.494Z,15.05
2022-10-26T11:51:51.539Z,13.43
2022-10-26T11:53:03.003Z,14.55
2022-10-26T11:54:15.140Z,16.02
2022-10-26T11:55:18.753Z,15.68
2022-10-26T11:56:32.172Z,14.35
2022-10-26T11:57:38.534Z,14.48
2022-10-26T11:58:41.699Z,15.20
2022-10-26T11:59:55.335Z,14.95
2022-10-26T12:01:05.213Z,14.48
2022-10-26T12:02:29.205Z,15.48
2022-10-26T12:03:36.689Z,14.38
2022-10-26T12:04:42.325Z,14.77
2022-10-26T12:05:50.294Z,15.85
2022-10-26T12:06:56.598Z,15.00
2022-10-26T12:08:08.943Z,14.10
2022-10-26T12:09:20.547Z,13.20
2022-10-26T12:10:28.193Z,15.70
2022-10-26T12:11:45.820Z,16.20
2022-10-26T12:12:59.669Z,14.70
2022-10-26T12:14:23.277Z,14.13
2022-10-26T12:16:10.635Z,15.05
2022-10-26T12:18:43.169Z,14.57
2022-10-26T12:19:55.308Z,13.93
2022-10-26T12:21:04.705Z,14.32
2022-10-26T12:22:12.842Z,14.25
2022-10-26T12:23:23.207Z,15.30
2022-10-26T12:24:38.974Z,14.38
2022-10-26T12:25:41.193Z,15.18
2022-10-26T12:27:00.750Z,17.50
2022-10-26T12:28:03.183Z,16.20
2022-10-26T12:29:05.539Z,17.13
2022-10-26T12:30:20.553Z,17.65
2022-10-26T12:31:46.010Z,15.98
2022-10-26T12:32:48.821Z,13.70
2022-10-26T12:33:51.826Z,14.90
2022-10-26T12:34:55.094Z,14.07
2022-10-26T12:35:59.026Z,15.07
2022-10-26T12:37:02.803Z,13.57
2022-10-26T12:38:24.015Z,13.65
2022-10-26T12:39:29.357Z,15.05
2022-10-26T12:40:40.143Z,14.07
2022-10-26T12:41:56.912Z,13.73
2022-10-26T12:43:19.314Z,13.93
2022-10-26T12:44:41.390Z,14.45
2022-10-26T12:45:45.730Z,15.88
2022-10-26T12:46:48.755Z,15.57
2022-10-26T12:47:51.286Z,15.63
2022-10-26T12:48:54.110Z,15.77
2022-10-26T12:50:08.615Z,16.40
2022-10-26T12:51:22.910Z,16.13
2022-10-26T12:52:48.033Z,14.63
2022-10-26T12:54:20.796Z,14.10
2022-10-26T12:55:46.452Z,13.85
2022-10-26T12:56:58.015Z,15.23
2022-10-26T12:58:33.763Z,15.35
2022-10-26T13:00:01.879Z,14.88
2022-10-26T13:01:04.282Z,15.60
2022-10-26T13:02:12.585Z,16.08
2022-10-26T13:03:30.356Z,17.27
2022-10-26T13:05:01.399Z,15.40
2022-10-26T13:06:31.599Z,14.93
2022-10-26T13:07:40.190Z,15.32
2022-10-26T13:08:45.536Z,16.10
2022-10-26T13:10:14.766Z,16.80
2022-10-26T13:11:25.318Z,15.90
2022-10-26T13:12:29.788Z,15.63
2022-10-26T13:13:34.433Z,16.33
2022-10-26T13:14:41.721Z,14.77
2022-10-26T13:15:57.382Z,16.25
2022-10-26T13:17:02.113Z,14.15
2022-10-26T13:18:07.024Z,14.98
2022-10-26T13:19:24.227Z,15.13
2022-10-26T13:20:27.990Z,14.63
2022-10-26T13:21:30.426Z,15.75
2022-10-26T13:22:33.358Z,14.98
2022-10-26T13:23:45.231Z,14.70
2022-10-26T13:25:18.654Z,14.57
2022-10-26T13:26:28.877Z,13.82
2022-10-26T13:28:39.582Z,13.95
2022-10-26T13:30:17.628Z,13.57
2022-10-26T13:31:31.906Z,13.88
2022-10-26T13:32:36.720Z,13.25
2022-10-26T13:33:42.522Z,14.98
2022-10-26T13:34:44.832Z,13.57
2022-10-26T13:35:47.536Z,14.68
2022-10-26T13:37:21.401Z,15.55
2022-10-26T13:38:27.430Z,13.95
2022-10-26T13:39:55.957Z,15.30
2022-10-26T13:41:08.359Z,13.32
2022-10-26T13:42:17.254Z,15.65
2022-10-26T13:43:23.278Z,15.25
2022-10-26T13:44:31.062Z,14.57
2022-10-26T13:45:41.883Z,13.50
2022-10-26T13:46:46.949Z,15.70
2022-10-26T13:48:06.760Z,15.32
2022-10-26T13:49:24.823Z,15.90
2022-10-26T13:50:32.742Z,15.50
2022-10-26T13:51:43.190Z,17.33
2022-10-26T13:52:49.672Z,15.57
2022-10-26T13:54:04.645Z,16.67
2022-10-26T13:55:22.117Z,16.70
2022-10-26T13:56:31.599Z,15.07
2022-10-26T13:57:42.399Z,15.70
2022-10-26T13:59:06.608Z,15.10
2022-10-26T14:00:17.194Z,16.10
2022-10-26T14:01:26.409Z,16.65
2022-10-26T14:02:32.167Z,16.55
2022-10-26T14:03:34.618Z,17.70
2022-10-26T14:04:37.113Z,17.50
2022-10-26T14:05:43.884Z,18.15
2022-10-26T14:06:51.699Z,17.98
2022-10-26T14:07:57.596Z,18.25
2022-10-26T14:09:11.667Z,17.95
2022-10-26T14:10:38.308Z,17.05
2022-10-26T14:11:47.123Z,17.10
2022-10-26T14:12:51.292Z,16.75
2022-10-26T14:15:08.988Z,17.67
2022-10-26T14:16:14.224Z,17.00
2022-10-26T14:17:25.929Z,17.63
2022-10-26T14:18:31.439Z,19.15
2022-10-26T14:19:36.851Z,18.08
2022-10-26T14:20:39.583Z,18.58
2022-10-26T14:21:43.318Z,20.30
2022-10-26T14:22:46.054Z,18.85
2022-10-26T14:24:04.363Z,19.77
2022-10-26T14:25:41.605Z,21.35
2022-10-26T14:26:45.667Z,28.88
2022-10-26T14:27:48.390Z,27.48
2022-10-26T14:28:55.263Z,29.42
2022-10-26T14:30:21.032Z,35.92
2022-10-26T14:31:29.407Z,28.42
2022-10-26T14:32:33.652Z,23.00
2022-10-26T14:33:36.013Z,21.27
2022-10-26T14:34:38.275Z,19.88
2022-10-26T14:35:42.311Z,22.23
2022-10-26T14:38:00.966Z,19.38
2022-10-26T14:39:19.331Z,21.23
2022-10-26T14:40:25.637Z,20.90
2022-10-26T14:41:29.078Z,20.60
2022-10-26T14:42:38.769Z,20.75
2022-10-26T14:43:41.155Z,21.10
2022-10-26T14:44:43.887Z,21.50
2022-10-26T14:45:50.004Z,20.23
2022-10-26T14:46:54.705Z,21.60
2022-10-26T14:47:57.227Z,20.95
2022-10-26T14:49:01.704Z,22.75
2022-10-26T14:50:04.593Z,23.83
2022-10-26T14:51:11.885Z,24.30
2022-10-26T14:52:21.861Z,24.80
2022-10-26T14:53:32.801Z,25.63
2022-10-26T14:54:35.189Z,24.50
2022-10-26T14:56:04.292Z,25.30
2022-10-26T14:57:34.005Z,24.25
2022-10-26T14:58:36.942Z,23.05
2022-10-26T14:59:39.126Z,28.90
2022-10-26T15:00:42.756Z,25.75